Data for 05/14/2015

Time Sea-Level Adjusted Pressure Absolute Pressure Temperature Relative Humidity Dew Point   
(mb) (inHg) (mb) (inHg) (C) (F) (%) (C) (F)
00:05 1015 29.97 844 24.92 7.6 45.6 71 2.6 36.7
00:10 1015 29.97 844 24.92 7.5 45.5 70 2.4 36.3
00:15 1015 29.97 844 24.92 7.5 45.5 70 2.4 36.4
00:20 1015 29.97 844 24.92 7.6 45.6 70 2.5 36.5
00:25 1015 29.97 844 24.92 7.7 45.9 73 3.3 37.9
00:30 1015 29.97 844 24.92 8.1 46.5 73 3.5 38.3
00:35 1015 29.97 844 24.92 8.1 46.7 73 3.6 38.5
00:40 1015 29.97 844 24.92 7.8 46 75 3.6 38.5
00:45 1015 29.97 844 24.92 7.5 45.4 74 3.2 37.7
00:50 1015 29.97 844 24.92 7.2 44.9 76 3.2 37.8
00:55 1015 29.97 844 24.92 8.3 46.9 71 3.4 38.2
01:00 1015 29.97 844 24.92 9.4 48.8 68 3.8 38.9
01:05 1015 29.97 844 24.92 9.6 49.3 68 4 39.2
01:10 1014 29.94 844 24.92 9.6 49.2 68 3.9 39
01:15 1014 29.94 844 24.92 9.6 49.2 68 3.9 39
01:20 1014 29.94 844 24.92 9.5 49.1 68 3.9 39
01:25 1014 29.94 844 24.92 9.4 48.9 68 3.8 38.8
01:30 1015 29.97 844 24.92 9.3 48.8 68 3.8 38.8
01:35 1015 29.97 844 24.92 9.2 48.6 69 3.8 38.8
01:40 1015 29.97 844 24.92 9.1 48.4 69 3.7 38.7
01:45 1015 29.97 844 24.92 9 48.3 69 3.8 38.8
01:50 1014 29.94 844 24.92 8.9 48 70 3.7 38.6
01:55 1014 29.94 844 24.92 8.8 47.9 70 3.7 38.7
02:00 1015 29.97 844 24.92 8.8 47.8 70 3.6 38.5
02:05 1015 29.97 844 24.92 8.8 47.8 70 3.7 38.6
02:10 1015 29.97 844 24.92 8.7 47.6 71 3.7 38.7
02:15 1015 29.97 844 24.92 7 44.7 78 3.4 38.1
02:20 1015 29.97 844 24.92 5.9 42.6 80 2.8 37
02:25 1015 29.97 844 24.92 5.7 42.2 81 2.7 36.9
02:30 1015 29.97 844 24.92 5.6 42.1 81 2.7 36.9
02:35 1015 29.97 844 24.92 5.6 42.1 82 2.7 36.8
02:40 1015 29.97 844 24.92 5.9 42.7 80 2.7 36.9
02:45 1015 29.97 845 24.95 6.1 43 80 2.9 37.1
02:50 1016 30 845 24.95 6.1 43 79 2.8 37
02:55 1016 30 845 24.95 6.4 43.5 79 3 37.3
03:00 1016 30 845 24.95 6.4 43.6 79 3 37.4
03:05 1016 30 845 24.95 6.4 43.5 76 2.6 36.7
03:10 1016 30 846 24.98 6.7 44.1 76 2.7 36.9
03:15 1016 30 846 24.98 6.7 44 77 2.9 37.1
03:20 1016 30 846 24.98 6.7 44.1 77 3.1 37.6
03:25 1016 30 846 24.98 6.9 44.3 77 3.2 37.7
03:30 1016 30 845 24.95 6.7 44.1 80 3.5 38.4
03:35 1016 30 845 24.95 6.1 43 84 3.6 38.5
03:40 1016 30 845 24.95 5.6 42 87 3.5 38.4
03:45 1016 30 845 24.95 5.5 41.8 87 3.5 38.2
03:50 1016 30 845 24.95 5.5 41.9 87 3.5 38.3
03:55 1016 30 845 24.95 5.6 42 87 3.6 38.4
04:00 1016 30 845 24.95 5.7 42.2 88 3.8 38.8
04:05 1016 30 845 24.95 5.7 42.3 87 3.8 38.9
04:10 1016 30 845 24.95 5.8 42.4 86 3.7 38.7
04:15 1016 30 845 24.95 5.9 42.7 86 3.8 38.8
04:20 1016 30 845 24.95 6.1 42.9 86 3.8 38.9
04:25 1015 29.97 845 24.95 6.2 43.1 84 3.7 38.7
04:30 1015 29.97 845 24.95 6.4 43.5 83 3.8 38.9
04:35 1015 29.97 845 24.95 6.6 43.9 82 3.8 38.9
04:40 1015 29.97 844 24.92 6.8 44.2 82 3.9 39
04:45 1015 29.97 844 24.92 6.9 44.4 81 3.9 39
04:50 1015 29.97 844 24.92 6.9 44.4 80 3.8 38.8
04:55 1015 29.97 844 24.92 7 44.5 80 3.8 38.9
05:00 1015 29.97 844 24.92 7 44.5 80 3.7 38.7
05:05 1015 29.97 844 24.92 7 44.5 80 3.7 38.7
05:10 1015 29.97 844 24.92 6.9 44.5 80 3.7 38.7
05:15 1015 29.97 844 24.92 6.9 44.4 80 3.7 38.7
05:20 1015 29.97 844 24.92 6.8 44.3 80 3.6 38.5
05:25 1015 29.97 844 24.92 6.8 44.3 80 3.6 38.5
05:30 1015 29.97 844 24.92 6.8 44.2 80 3.6 38.4
05:35 1015 29.97 844 24.92 6.8 44.2 80 3.5 38.3
05:40 1015 29.97 844 24.92 6.7 44.1 80 3.6 38.5
05:45 1015 29.97 844 24.92 6.7 44.1 80 3.5 38.3
05:50 1015 29.97 844 24.92 6.8 44.3 80 3.5 38.4
05:55 1015 29.97 844 24.92 6.9 44.4 79 3.5 38.4
06:00 1015 29.97 845 24.95 6.9 44.4 79 3.5 38.4
06:05 1015 29.97 845 24.95 6.9 44.4 79 3.5 38.3
06:10 1016 30 845 24.95 7 44.6 78 3.5 38.3
06:15 1016 30 845 24.95 7.1 44.8 77 3.4 38.2
06:20 1015 29.97 845 24.95 7.3 45.2 76 3.4 38.2
06:25 1015 29.97 845 24.95 7.5 45.6 76 3.5 38.3
06:30 1015 29.97 845 24.95 7.7 45.9 76 3.7 38.7
06:35 1015 29.97 845 24.95 7.8 46.1 75 3.7 38.7
06:40 1015 29.97 845 24.95 7.9 46.2 75 3.7 38.7
06:45 1015 29.97 845 24.95 8.1 46.6 74 3.7 38.7
06:50 1015 29.97 845 24.95 8.3 46.9 73 3.8 38.8
06:55 1015 29.97 845 24.95 8.3 46.9 75 4.2 39.5
07:00 1016 30 845 24.95 8.3 46.9 73 3.8 38.8
07:05 1015 29.97 845 24.95 8.1 46.6 76 4.1 39.5
07:10 1015 29.97 845 24.95 8.1 46.6 75 3.9 39.1
07:15 1015 29.97 844 24.92 8 46.4 75 3.8 38.8
07:20 1015 29.97 844 24.92 8 46.3 75 3.8 38.9
07:25 1015 29.97 844 24.92 8.1 46.7 74 3.7 38.7
07:30 1015 29.97 844 24.92 8.1 46.6 73 3.7 38.6
07:35 1015 29.97 844 24.92 8.3 46.9 73 3.7 38.6
07:40 1015 29.97 844 24.92 8.2 46.8 74 3.9 39
07:45 1015 29.97 844 24.92 8.2 46.8 73 3.6 38.5
07:50 1015 29.97 844 24.92 8.5 47.3 72 3.8 38.9
07:55 1015 29.97 844 24.92 8.5 47.4 72 3.7 38.7
08:00 1015 29.97 844 24.92 8.7 47.6 72 3.8 38.9
08:05 1015 29.97 844 24.92 8.8 47.8 71 3.7 38.7
08:10 1015 29.97 844 24.92 8.9 47.9 71 3.9 38.9
08:15 1015 29.97 845 24.95 8.9 47.9 71 3.9 39
08:20 1015 29.97 845 24.95 8.8 47.9 71 4 39.1
08:25 1015 29.97 845 24.95 8.6 47.5 77 4.9 40.8
08:30 1016 30 845 24.95 8.5 47.3 77 4.7 40.4
08:35 1016 30 845 24.95 8.6 47.5 75 4.5 40.1
08:40 1016 30 845 24.95 8.9 48 72 4.1 39.3
08:45 1016 30 845 24.95 8.8 47.9 72 4.2 39.5
08:50 1015 29.97 845 24.95 8.9 48 72 4.2 39.5
08:55 1015 29.97 845 24.95 8.9 47.9 72 4 39.3
09:00 1015 29.97 845 24.95 9 48.2 71 3.9 39.1
09:05 1015 29.97 844 24.92 9.2 48.5 70 4.1 39.4
09:10 1015 29.97 844 24.92 9.3 48.7 69 3.9 39
09:15 1015 29.97 844 24.92 9.6 49.2 68 4 39.1
09:20 1015 29.97 844 24.92 9.8 49.6 68 4.2 39.6
09:25 1015 29.97 844 24.92 9.9 49.8 67 4 39.3
09:30 1015 29.97 844 24.92 10 49.9 67 4.1 39.3
09:35 1015 29.97 844 24.92 10.2 50.3 65 3.9 39
09:40 1015 29.97 844 24.92 10.6 51.1 64 4.1 39.3
09:45 1015 29.97 844 24.92 10.7 51.2 65 4.3 39.8
09:50 1015 29.97 844 24.92 10.5 51 65 4.3 39.7
09:55 1015 29.97 844 24.92 10.4 50.8 65 4.2 39.6
10:00 1015 29.97 844 24.92 10.6 51.1 65 4.4 39.9
10:05 1015 29.97 844 24.92 10.8 51.4 64 4.3 39.8
10:10 1015 29.97 844 24.92 10.8 51.5 64 4.2 39.6
10:15 1015 29.97 844 24.92 10.9 51.6 64 4.4 39.9
10:20 1014 29.94 844 24.92 10.9 51.6 63 4.2 39.6
10:25 1014 29.94 844 24.92 10.6 51 64 4.2 39.5
10:30 1014 29.94 844 24.92 10.6 51.1 65 4.4 39.8
10:35 1014 29.94 844 24.92 10.5 50.8 65 4.3 39.8
10:40 1014 29.94 844 24.92 10.5 50.8 65 4.3 39.7
10:45 1014 29.94 844 24.92 10.5 50.9 65 4.4 39.8
10:50 1014 29.94 844 24.92 10.6 51 65 4.2 39.6
10:55 1014 29.94 844 24.92 10.9 51.6 64 4.3 39.8
11:00 1014 29.94 843 24.89 11 51.8 63 4.4 39.8
11:05 1014 29.94 843 24.89 11.2 52.2 61 4 39.3
11:10 1014 29.94 843 24.89 11.6 52.8 61 4.4 40
11:15 1014 29.94 843 24.89 11.5 52.6 62 4.5 40.1
11:20 1014 29.94 843 24.89 11.6 52.9 61 4.4 39.8
11:25 1014 29.94 843 24.89 11.7 53.1 61 4.6 40.3
11:30 1014 29.94 843 24.89 11.9 53.4 61 4.7 40.4
11:35 1014 29.94 843 24.89 11.9 53.4 61 4.6 40.2
11:40 1014 29.94 843 24.89 12 53.6 60 4.6 40.4
11:45 1014 29.94 843 24.89 11.7 53 61 4.4 40
11:50 1013 29.91 843 24.89 11.4 52.5 62 4.3 39.8
11:55 1013 29.91 843 24.89 11.2 52.2 64 4.7 40.4
12:00 1013 29.91 842 24.86 11.2 52.1 64 4.6 40.3
12:05 1013 29.91 842 24.86 11.1 51.9 65 4.8 40.6
12:10 1013 29.91 842 24.86 10.9 51.5 65 4.6 40.3
12:15 1013 29.91 842 24.86 10.8 51.5 65 4.5 40.1
12:20 1013 29.91 842 24.86 10.6 51.1 65 4.4 40
12:25 1013 29.91 842 24.86 10.5 50.9 65 4.4 39.8
12:30 1013 29.91 842 24.86 10.6 51 65 4.3 39.7
12:35 1013 29.91 842 24.86 10.5 50.9 65 4.3 39.8
12:40 1013 29.91 842 24.86 10.3 50.5 66 4.4 39.8
12:45 1013 29.91 842 24.86 10.2 50.3 66 4.1 39.5
12:50 1013 29.91 842 24.86 10.1 50.3 65 3.9 39
12:55 1013 29.91 843 24.89 10 50 70 4.9 40.8
13:00 1014 29.94 843 24.89 9.7 49.5 69 4.3 39.8
13:05 1014 29.94 843 24.89 10 49.9 67 4 39.3
13:10 1013 29.91 843 24.89 10.2 50.3 68 4.6 40.2
13:15 1013 29.91 843 24.89 10.3 50.5 67 4.4 40
13:20 1013 29.91 842 24.86 10.5 50.9 66 4.4 39.9
13:25 1013 29.91 842 24.86 10.8 51.4 64 4.3 39.8
13:30 1013 29.91 842 24.86 11.1 51.9 62 4.2 39.5
13:35 1013 29.91 842 24.86 11.2 52.2 64 4.7 40.5
13:40 1013 29.91 842 24.86 11 51.7 65 4.7 40.5
13:45 1013 29.91 842 24.86 10.6 51.2 67 4.9 40.8
13:50 1013 29.91 843 24.89 10.3 50.5 71 5.2 41.4
13:55 1014 29.94 843 24.89 9.9 49.7 73 5.3 41.6
14:00 1014 29.94 843 24.89 9.5 49.1 77 5.7 42.3
14:05 1014 29.94 843 24.89 9.2 48.5 79 5.8 42.4
14:10 1014 29.94 843 24.89 9.1 48.4 79 5.7 42.2
14:15 1014 29.94 843 24.89 9.2 48.6 77 5.4 41.7
14:20 1014 29.94 843 24.89 9.3 48.8 77 5.4 41.8
14:25 1014 29.94 843 24.89 9.5 49.1 76 5.5 41.8
14:30 1014 29.94 843 24.89 9.7 49.4 75 5.6 42
14:35 1014 29.94 843 24.89 10.1 50.3 73 5.6 42.1
14:40 1014 29.94 843 24.89 10.4 50.8 72 5.6 42.1
14:45 1014 29.94 843 24.89 10.9 51.6 70 5.7 42.3
14:50 1013 29.91 843 24.89 11.4 52.6 67 5.5 42
14:55 1013 29.91 842 24.86 12 53.6 67 6 42.8
15:00 1013 29.91 842 24.86 12.7 54.9 62 5.8 42.4
15:05 1013 29.91 842 24.86 12.7 54.9 61 5.4 41.7
15:10 1013 29.91 842 24.86 12.8 55 60 5.2 41.4
15:15 1013 29.91 842 24.86 12.6 54.7 61 5.4 41.7
15:20 1013 29.91 842 24.86 12.6 54.7 61 5.4 41.7
15:25 1013 29.91 842 24.86 12.4 54.4 62 5.3 41.5
15:30 1013 29.91 842 24.86 12.2 54 61 5.1 41.1
15:35 1013 29.91 842 24.86 12.2 53.9 62 5.2 41.3
15:40 1012 29.88 842 24.86 12 53.7 62 5.1 41.2
15:45 1012 29.88 842 24.86 12.1 53.8 64 5.5 41.9
15:50 1012 29.88 841 24.83 11.9 53.4 63 5.2 41.4
15:55 1012 29.88 841 24.83 11.8 53.2 64 5.1 41.2
16:00 1012 29.88 841 24.83 11.8 53.3 63 5 41
16:05 1012 29.88 841 24.83 11.7 53 63 4.9 40.8
16:10 1012 29.88 841 24.83 11.6 52.8 65 5.2 41.3
16:15 1012 29.88 841 24.83 11.6 53 63 4.8 40.6
16:20 1012 29.88 841 24.83 11.4 52.5 65 5.1 41.1
16:25 1012 29.88 841 24.83 11.1 52 66 5 41
16:30 1012 29.88 841 24.83 10.6 51.1 67 4.8 40.7
16:35 1011 29.85 841 24.83 10.4 50.6 67 4.5 40.2
16:40 1011 29.85 841 24.83 10.2 50.4 68 4.7 40.4
16:45 1012 29.88 841 24.83 10.1 50.1 69 4.8 40.6
16:50 1012 29.88 841 24.83 9.9 49.9 70 4.8 40.6
16:55 1012 29.88 841 24.83 9.9 49.8 71 4.9 40.8
17:00 1012 29.88 841 24.83 9.8 49.6 72 5 41
17:05 1012 29.88 841 24.83 9.7 49.4 72 5 40.9
17:10 1012 29.88 841 24.83 9.5 49.2 73 5 40.9
17:15 1012 29.88 841 24.83 9.5 49.2 74 5.1 41.1
17:20 1012 29.88 841 24.83 9.4 48.9 74 5.1 41.1
17:25 1012 29.88 841 24.83 9.2 48.6 75 5 41
17:30 1012 29.88 841 24.83 9.2 48.5 75 5 41
17:35 1012 29.88 841 24.83 9.1 48.4 75 4.9 40.8
17:40 1012 29.88 841 24.83 9.2 48.5 75 5 41
17:45 1012 29.88 841 24.83 9.2 48.5 75 5 41.1
17:50 1012 29.88 841 24.83 9.1 48.3 76 5.1 41.1
17:55 1012 29.88 841 24.83 9 48.2 76 5.1 41.1
18:00 1012 29.88 841 24.83 9 48.2 76 5.1 41.1
18:05 1012 29.88 841 24.83 8.9 47.9 76 4.9 40.8
18:10 1012 29.88 841 24.83 8.8 47.9 77 5 41
18:15 1012 29.88 841 24.83 8.8 47.9 77 5.1 41.2
18:20 1012 29.88 841 24.83 8.8 47.8 78 5.1 41.2
18:25 1012 29.88 841 24.83 8.8 47.8 78 5.2 41.3
18:30 1012 29.88 841 24.83 8.7 47.7 78 5.1 41.2
18:35 1012 29.88 841 24.83 8.6 47.5 79 5.1 41.2
18:40 1012 29.88 841 24.83 8.5 47.3 79 5.1 41.1
18:45 1012 29.88 841 24.83 8.4 47.1 80 5.1 41.2
18:50 1012 29.88 841 24.83 8.2 46.8 80 5.1 41.1
18:55 1012 29.88 841 24.83 8.2 46.8 80 5.1 41.1
19:00 1012 29.88 841 24.83 8.2 46.7 80 5 41
19:05 1012 29.88 841 24.83 8.2 46.7 80 5 41.1
19:10 1012 29.88 841 24.83 8.2 46.7 80 5 40.9
19:15 1012 29.88 841 24.83 8.2 46.7 80 4.9 40.8
19:20 1012 29.88 841 24.83 8.2 46.8 79 4.8 40.6
19:25 1012 29.88 841 24.83 8.2 46.8 80 4.9 40.8
19:30 1012 29.88 841 24.83 8.2 46.7 80 5 41
19:35 1012 29.88 841 24.83 8.1 46.5 81 5 41
19:40 1012 29.88 841 24.83 8 46.4 81 5 41.1
19:45 1012 29.88 841 24.83 7.9 46.3 82 5 41.1
19:50 1012 29.88 841 24.83 7.9 46.2 82 5.1 41.2
19:55 1012 29.88 841 24.83 7.9 46.2 82 5.1 41.1
20:00 1012 29.88 841 24.83 7.8 46.1 82 5 41
20:05 1012 29.88 841 24.83 7.9 46.2 82 5 41
20:10 1012 29.88 841 24.83 7.9 46.2 82 4.9 40.9
20:15 1012 29.88 841 24.83 8 46.3 81 4.8 40.7
20:20 1012 29.88 841 24.83 8 46.3 81 4.9 40.8
20:25 1012 29.88 841 24.83 7.9 46.3 81 4.8 40.7
20:30 1012 29.88 841 24.83 7.9 46.2 82 5 41
20:35 1012 29.88 841 24.83 7.8 46 82 4.8 40.7
20:40 1012 29.88 841 24.83 7.8 46.1 81 4.7 40.5
20:45 1012 29.88 841 24.83 7.9 46.3 80 4.8 40.6
20:50 1012 29.88 841 24.83 7.9 46.3 80 4.8 40.6
20:55 1012 29.88 841 24.83 8 46.4 80 4.8 40.6
21:00 1012 29.88 841 24.83 8 46.3 81 4.8 40.7
21:05 1012 29.88 841 24.83 7.9 46.3 81 5 40.9
21:10 1012 29.88 841 24.83 7.9 46.2 81 4.9 40.8
21:15 1012 29.88 841 24.83 7.9 46.2 81 4.9 40.8
21:20 1012 29.88 841 24.83 7.9 46.2 81 4.9 40.8
21:25 1012 29.88 841 24.83 8 46.3 81 4.9 40.8
21:30 1012 29.88 841 24.83 8.1 46.5 80 4.9 40.8
21:35 1012 29.88 841 24.83 8.1 46.6 80 4.9 40.8
21:40 1012 29.88 841 24.83 8.1 46.6 80 4.8 40.7
21:45 1012 29.88 841 24.83 8.2 46.7 80 4.9 40.8
21:50 1012 29.88 841 24.83 8.1 46.7 80 4.9 40.8
21:55 1012 29.88 841 24.83 8.2 46.8 79 4.8 40.7
22:00 1012 29.88 841 24.83 8.2 46.8 80 5 41
22:05 1012 29.88 841 24.83 8.1 46.7 80 5 40.9
22:10 1012 29.88 841 24.83 8.2 46.7 80 5 41
22:15 1012 29.88 841 24.83 8.2 46.7 80 5 41
22:20 1012 29.88 841 24.83 8.2 46.8 80 5 40.9
22:25 1012 29.88 841 24.83 8.3 46.9 79 4.9 40.9
22:30 1012 29.88 841 24.83 8.3 46.9 80 5.1 41.1
22:35 1012 29.88 841 24.83 8.2 46.8 81 5.2 41.3
22:40 1012 29.88 841 24.83 8.1 46.7 81 5.1 41.2
22:45 1012 29.88 841 24.83 8.2 46.7 81 5.2 41.3
22:50 1012 29.88 841 24.83 8.2 46.7 82 5.3 41.5
22:55 1012 29.88 841 24.83 8.1 46.6 82 5.3 41.5
23:00 1012 29.88 841 24.83 8.1 46.5 83 5.3 41.6
23:05 1012 29.88 841 24.83 8 46.4 83 5.3 41.6
23:10 1012 29.88 841 24.83 8 46.4 83 5.4 41.7
23:15 1012 29.88 841 24.83 8 46.5 83 5.4 41.7
23:20 1012 29.88 841 24.83 8 46.5 83 5.3 41.5
23:25 1012 29.88 841 24.83 8.1 46.6 83 5.4 41.6
23:30 1012 29.88 841 24.83 8.1 46.5 83 5.3 41.5
23:35 1012 29.88 841 24.83 8.1 46.6 82 5.3 41.5
23:40 1012 29.88 841 24.83 8.2 46.7 82 5.3 41.6
23:45 1012 29.88 841 24.83 8.2 46.7 82 5.4 41.7
23:50 1012 29.88 841 24.83 8.1 46.7 83 5.4 41.8
23:55 1012 29.88 841 24.83 8.1 46.7 83 5.5 41.9
24:00 1012 29.88 841 24.83 8.1 46.6 84 5.6 42